Time;durP1;ratioP1;P1;durP2;ratioP2;P2;SDS_P1;SDS_P2;PMS_P1;PMS_P2;Temp;Humidity;BMP_temperature;BMP_pressure;BME280_temperature;BME280_humidity;BME280_pressure;Samples;Min_cycle;Max_cycle;Signal;HPM_P1;HPM_P2
2022/01/02 00:01:38;;;;;;;8.20;4.23;;;10.80;91.00;;;;;;5055947;28;20176;-88
2022/01/02 00:04:04;;;;;;;9.93;3.67;;;10.90;91.10;;;;;;5055696;28;20294;-89
2022/01/02 00:06:33;;;;;;;4.77;3.60;;;10.90;91.20;;;;;;5055572;28;20179;-89
2022/01/02 00:09:04;;;;;;;6.20;3.73;;;10.80;91.30;;;;;;5055383;28;20300;-89
2022/01/02 00:11:30;;;;;;;6.00;4.10;;;10.80;91.40;;;;;;5054157;28;20180;-88
2022/01/02 00:14:08;;;;;;;7.97;3.87;;;10.80;91.40;;;;;;5055321;28;20172;-89
2022/01/02 00:16:37;;;;;;;9.13;4.60;;;10.80;91.40;;;;;;5054126;28;20192;-88
2022/01/02 00:19:16;;;;;;;8.23;3.77;;;10.80;91.30;;;;;;5054594;28;20553;-88
2022/01/02 00:21:45;;;;;;;5.73;4.30;;;10.90;91.20;;;;;;5055508;28;20639;-89
2022/01/02 00:24:16;;;;;;;4.33;3.93;;;10.80;91.20;;;;;;5055316;28;20183;-89
2022/01/02 00:26:45;;;;;;;8.07;3.33;;;10.80;91.20;;;;;;5055274;28;20167;-89
2022/01/02 00:29:12;;;;;;;5.80;3.87;;;10.80;91.40;;;;;;5053642;28;20216;-89
2022/01/02 00:31:39;;;;;;;7.43;4.17;;;10.80;91.40;;;;;;5053950;28;20183;-89
2022/01/02 00:34:07;;;;;;;6.63;4.87;;;10.80;91.60;;;;;;5054221;28;20517;-89
2022/01/02 00:36:33;;;;;;;9.47;4.57;;;10.80;91.50;;;;;;5053683;28;20180;-89
2022/01/02 00:38:59;;;;;;;10.63;5.07;;;10.80;91.60;;;;;;5053934;28;20203;-89
2022/01/02 00:41:43;;;;;;;6.90;3.83;;;10.80;91.60;;;;;;5053725;28;20270;-89
2022/01/02 00:44:41;;;;;;;9.33;4.80;;;10.80;91.60;;;;;;5055189;28;20176;-90
2022/01/02 00:47:08;;;;;;;6.27;4.10;;;10.80;91.70;;;;;;5053580;28;20293;-89
2022/01/02 00:49:43;;;;;;;8.20;4.33;;;10.80;91.40;;;;;;5053703;28;20687;-90
2022/01/02 00:52:16;;;;;;;5.87;3.87;;;10.80;91.40;;;;;;5053777;28;20195;-89
2022/01/02 00:54:45;;;;;;;5.40;4.20;;;10.80;91.50;;;;;;5054700;28;20157;-90
2022/01/02 00:57:17;;;;;;;6.60;4.80;;;10.70;91.80;;;;;;5053427;28;20187;-89
2022/01/02 01:00:07;;;;;;;8.50;4.37;;;10.70;91.80;;;;;;5053202;28;20246;-89
2022/01/02 01:02:48;;;;;;;7.73;4.80;;;10.70;91.70;;;;;;5053318;28;20210;-89
2022/01/02 01:05:26;;;;;;;8.10;4.70;;;10.80;91.50;;;;;;5053578;28;20160;-88
2022/01/02 01:07:54;;;;;;;8.53;4.60;;;10.70;91.50;;;;;;5053337;28;20191;-90
2022/01/02 01:10:23;;;;;;;8.00;4.27;;;10.70;91.50;;;;;;5053438;28;20196;-89
2022/01/02 01:12:50;;;;;;;8.63;4.63;;;10.70;91.50;;;;;;5053797;28;20206;-89
2022/01/02 01:15:16;;;;;;;7.23;5.53;;;10.70;91.70;;;;;;5053549;28;20548;-91
2022/01/02 01:17:42;;;;;;;11.37;5.70;;;10.70;91.90;;;;;;5054163;28;20266;-90
2022/01/02 01:20:13;;;;;;;9.27;5.80;;;10.70;91.70;;;;;;5053206;28;20564;-90
2022/01/02 01:22:39;;;;;;;7.47;4.27;;;10.80;91.90;;;;;;5052967;28;20787;-90
2022/01/02 01:25:11;;;;;;;6.97;4.30;;;10.70;92.00;;;;;;5052931;28;20230;-89
2022/01/02 01:27:37;;;;;;;9.07;5.07;;;10.70;92.10;;;;;;5052893;28;20192;-89
2022/01/02 01:30:04;;;;;;;7.37;4.73;;;10.60;92.50;;;;;;5052790;28;20219;-89
2022/01/02 01:32:29;;;;;;;7.60;4.77;;;10.50;92.80;;;;;;5052647;28;20183;-88
2022/01/02 01:34:55;;;;;;;9.53;5.17;;;10.50;92.80;;;;;;5053748;28;20168;-89
2022/01/02 01:37:21;;;;;;;10.40;6.20;;;10.50;92.90;;;;;;5052564;28;20176;-89
2022/01/02 01:39:46;;;;;;;10.47;5.97;;;10.50;93.00;;;;;;5053726;28;20611;-89
2022/01/02 01:42:12;;;;;;;10.40;5.43;;;10.50;93.00;;;;;;5053912;28;20675;-89
2022/01/02 01:45:02;;;;;;;10.80;5.70;;;10.60;92.90;;;;;;5053662;28;20168;-90
2022/01/02 01:47:25;;;;;;;11.77;6.57;;;10.60;92.90;;;;;;5053404;28;20172;-89
2022/01/02 01:49:50;;;;;;;14.73;5.10;;;10.60;92.90;;;;;;5052328;28;20195;-90
2022/01/02 01:52:16;;;;;;;9.07;5.87;;;10.60;92.90;;;;;;5053736;28;20544;-90
2022/01/02 01:54:42;;;;;;;9.10;6.20;;;10.60;93.10;;;;;;5052698;28;20180;-90
2022/01/02 01:57:08;;;;;;;9.43;6.40;;;10.50;93.30;;;;;;5052478;28;20164;-89
2022/01/02 01:59:33;;;;;;;10.17;6.37;;;10.60;93.40;;;;;;5052416;28;20192;-90
2022/01/02 02:01:59;;;;;;;12.17;6.87;;;10.50;93.60;;;;;;5052582;28;20176;-90
2022/01/02 02:04:25;;;;;;;11.23;6.97;;;10.60;93.80;;;;;;5052148;28;20271;-92
2022/01/02 02:06:53;;;;;;;9.13;6.10;;;10.50;93.80;;;;;;5053333;28;20267;-90
2022/01/02 02:09:21;;;;;;;12.87;6.40;;;10.60;93.80;;;;;;5053669;28;20207;-89
2022/01/02 02:11:47;;;;;;;10.17;6.87;;;10.60;93.80;;;;;;5052424;28;20215;-90
2022/01/02 02:14:13;;;;;;;12.70;7.17;;;10.60;93.80;;;;;;5052342;28;20210;-89
2022/01/02 02:16:39;;;;;;;8.30;5.77;;;10.60;93.90;;;;;;5052399;28;20195;-91
2022/01/02 02:19:05;;;;;;;14.60;8.20;;;10.60;93.90;;;;;;5053744;28;20203;-90
2022/01/02 02:21:36;;;;;;;10.10;6.47;;;10.60;94.00;;;;;;5053604;28;20210;-89
2022/01/02 02:24:04;;;;;;;14.30;7.90;;;10.60;94.00;;;;;;5052390;28;20164;-89
2022/01/02 02:26:32;;;;;;;11.73;7.97;;;10.50;94.10;;;;;;5052168;28;20179;-89
2022/01/02 02:28:57;;;;;;;14.87;7.80;;;10.60;94.10;;;;;;5053115;28;20207;-90
2022/01/02 02:31:23;;;;;;;10.33;7.77;;;10.60;94.10;;;;;;5052025;28;20176;-90
2022/01/02 02:33:49;;;;;;;9.40;6.67;;;10.50;94.20;;;;;;5052408;28;20176;-90
2022/01/02 02:36:14;;;;;;;14.80;9.27;;;10.50;94.20;;;;;;5051981;28;20198;-90
2022/01/02 02:38:40;;;;;;;11.07;7.57;;;10.50;94.20;;;;;;5051777;28;20184;-90
2022/01/02 02:41:06;;;;;;;15.63;8.67;;;10.50;94.30;;;;;;5053312;28;20180;-91
2022/01/02 02:43:42;;;;;;;9.23;6.60;;;10.40;94.30;;;;;;5055977;28;20202;-89
2022/01/02 02:49:03;;;;;;;12.10;7.40;;;10.40;94.50;;;;;;5057266;28;20238;-89
2022/01/02 02:51:54;;;;;;;14.50;8.33;;;10.40;94.50;;;;;;5055762;28;20178;-90
2022/01/02 02:54:26;;;;;;;15.73;8.33;;;10.40;94.50;;;;;;5055925;28;20210;-90
2022/01/02 02:56:59;;;;;;;13.27;8.80;;;10.40;94.60;;;;;;5055715;28;20675;-90
2022/01/02 02:59:30;;;;;;;10.60;6.77;;;10.40;94.60;;;;;;5055565;28;20282;-90
2022/01/02 03:01:57;;;;;;;9.73;7.53;;;10.40;94.70;;;;;;5055729;28;20236;-90
2022/01/02 03:04:23;;;;;;;14.00;9.50;;;10.50;94.70;;;;;;5055711;28;20652;-90
2022/01/02 03:06:49;;;;;;;13.47;7.70;;;10.50;94.70;;;;;;5056971;28;20274;-90
2022/01/02 03:09:19;;;;;;;15.03;8.77;;;10.50;94.60;;;;;;5055279;28;20216;-89
2022/01/02 03:11:45;;;;;;;13.50;9.03;;;10.50;94.60;;;;;;5055370;28;20221;-90
2022/01/02 03:14:13;;;;;;;16.37;9.07;;;10.50;94.50;;;;;;5055265;28;20168;-89
2022/01/02 03:16:39;;;;;;;14.63;9.73;;;10.40;94.50;;;;;;5055309;28;20255;-88
2022/01/02 03:19:06;;;;;;;15.73;10.40;;;10.50;94.60;;;;;;5056756;28;20602;-90
2022/01/02 03:21:31;;;;;;;13.57;8.80;;;10.50;94.60;;;;;;5055268;28;20651;-89
2022/01/02 03:23:57;;;;;;;15.23;9.87;;;10.40;94.70;;;;;;5055242;28;20241;-89
2022/01/02 03:26:23;;;;;;;16.93;10.17;;;10.40;94.70;;;;;;5055061;28;20219;-89
2022/01/02 03:28:49;;;;;;;15.63;10.47;;;10.40;94.80;;;;;;5054979;28;20580;-89
2022/01/02 03:31:15;;;;;;;15.77;10.33;;;10.40;94.80;;;;;;5055072;28;20179;-91
2022/01/02 03:33:41;;;;;;;14.60;10.13;;;10.40;94.90;;;;;;5054800;28;20544;-90
2022/01/02 03:36:07;;;;;;;17.00;10.43;;;10.40;94.90;;;;;;5055066;28;20172;-90
2022/01/02 03:38:33;;;;;;;17.43;10.57;;;10.40;94.90;;;;;;5054762;28;20266;-89
2022/01/02 03:40:59;;;;;;;18.07;11.47;;;10.40;94.90;;;;;;5054755;28;20218;-90
2022/01/02 03:43:25;;;;;;;17.37;9.93;;;10.40;95.00;;;;;;5054589;28;20176;-90
2022/01/02 03:45:52;;;;;;;18.57;12.00;;;10.40;95.10;;;;;;5054635;28;20188;-90
2022/01/02 03:48:17;;;;;;;17.63;10.30;;;10.40;95.20;;;;;;5054488;28;20207;-90
2022/01/02 03:50:43;;;;;;;19.80;11.87;;;10.40;95.20;;;;;;5054440;28;20299;-90
2022/01/02 03:53:09;;;;;;;19.27;11.90;;;10.40;95.20;;;;;;5053080;28;20204;-90
2022/01/02 03:55:34;;;;;;;18.80;11.97;;;10.40;95.20;;;;;;5055524;28;20219;-91
2022/01/02 03:58:00;;;;;;;21.07;11.37;;;10.40;95.30;;;;;;5054327;28;20555;-90
2022/01/02 04:00:26;;;;;;;13.77;9.37;;;10.40;95.30;;;;;;5055588;28;20200;-91
2022/01/02 04:02:52;;;;;;;15.67;10.97;;;10.50;95.30;;;;;;5054334;28;20222;-90
2022/01/02 04:05:18;;;;;;;18.00;11.50;;;10.50;95.30;;;;;;5055406;28;20179;-91
2022/01/02 04:07:44;;;;;;;15.70;11.40;;;10.50;95.20;;;;;;5053979;28;20211;-90
2022/01/02 04:10:13;;;;;;;17.87;12.33;;;10.50;95.20;;;;;;5054087;28;20253;-90
2022/01/02 04:12:40;;;;;;;20.37;13.20;;;10.40;95.20;;;;;;5054283;28;20178;-90
2022/01/02 04:15:08;;;;;;;23.37;14.10;;;10.40;95.30;;;;;;5053988;28;20172;-91
2022/01/02 04:17:34;;;;;;;17.43;9.70;;;10.40;95.40;;;;;;5054315;28;20234;-90
2022/01/02 04:20:04;;;;;;;17.63;12.00;;;10.40;95.40;;;;;;5053793;28;20195;-90
2022/01/02 04:22:30;;;;;;;21.23;12.03;;;10.50;95.40;;;;;;5054829;28;20777;-89
2022/01/02 04:24:55;;;;;;;18.90;12.57;;;10.30;95.40;;;;;;5053787;28;20179;-90
2022/01/02 04:27:23;;;;;;;22.50;13.83;;;10.40;95.40;;;;;;5053801;28;20297;-90
2022/01/02 04:29:49;;;;;;;22.87;14.40;;;10.40;95.40;;;;;;5053763;28;20195;-90
2022/01/02 04:32:14;;;;;;;23.90;14.97;;;10.30;95.50;;;;;;5053694;28;20640;-89
2022/01/02 04:34:41;;;;;;;25.53;17.43;;;10.30;95.50;;;;;;5053654;28;20721;-89
2022/01/02 04:37:07;;;;;;;22.73;14.93;;;10.30;95.50;;;;;;5054860;28;20164;-90
2022/01/02 04:39:33;;;;;;;25.37;17.53;;;10.30;95.50;;;;;;5053560;28;20675;-90
2022/01/02 04:41:59;;;;;;;22.30;16.70;;;10.30;95.50;;;;;;5053585;28;20674;-90
2022/01/02 04:44:25;;;;;;;24.87;18.40;;;10.30;95.60;;;;;;5053529;28;20195;-90
2022/01/02 04:46:50;;;;;;;28.17;18.70;;;10.30;95.50;;;;;;5054316;28;20176;-90
2022/01/02 04:49:16;;;;;;;23.63;15.70;;;10.40;95.60;;;;;;5054592;28;20290;-92
2022/01/02 04:51:42;;;;;;;18.73;13.33;;;10.30;95.70;;;;;;5053591;28;20640;-90
2022/01/02 04:54:08;;;;;;;21.37;16.00;;;10.30;95.70;;;;;;5054619;28;20168;-91
2022/01/02 04:56:33;;;;;;;25.30;21.00;;;10.40;95.80;;;;;;5054484;28;20175;-90
2022/01/02 04:58:59;;;;;;;24.13;18.07;;;10.30;95.80;;;;;;5054398;28;20195;-91
2022/01/02 05:01:25;;;;;;;23.50;17.37;;;10.30;95.90;;;;;;5054287;28;20179;-89
2022/01/02 05:03:50;;;;;;;28.73;19.60;;;10.40;95.90;;;;;;5052966;28;20180;-90
2022/01/02 05:06:16;;;;;;;28.63;21.40;;;10.40;95.90;;;;;;5053074;28;20254;-89
2022/01/02 05:08:44;;;;;;;29.97;19.40;;;10.30;95.80;;;;;;5052758;28;20562;-90
2022/01/02 05:11:10;;;;;;;25.27;18.87;;;10.30;95.90;;;;;;5052952;28;20184;-89
2022/01/02 05:13:36;;;;;;;31.60;23.30;;;10.30;95.90;;;;;;5052922;28;20180;-90
2022/01/02 05:16:01;;;;;;;28.50;19.97;;;10.30;95.90;;;;;;5052878;28;20672;-90
2022/01/02 05:18:27;;;;;;;30.43;19.43;;;10.30;95.90;;;;;;5052910;28;20182;-90
2022/01/02 05:20:53;;;;;;;33.17;23.83;;;10.30;95.90;;;;;;5053072;28;20184;-90
2022/01/02 05:23:22;;;;;;;34.27;23.27;;;10.30;95.90;;;;;;5052790;28;20186;-90
2022/01/02 05:25:48;;;;;;;30.27;23.87;;;10.30;96.00;;;;;;5052880;28;20603;-91
2022/01/02 05:28:14;;;;;;;33.03;23.53;;;10.30;96.00;;;;;;5053887;28;20286;-91
2022/01/02 05:30:40;;;;;;;33.47;22.00;;;10.30;96.00;;;;;;5052689;28;20639;-91
2022/01/02 05:33:07;;;;;;;32.30;23.10;;;10.30;96.00;;;;;;5053025;28;20172;-91
2022/01/02 05:35:33;;;;;;;29.57;18.27;;;10.30;96.10;;;;;;5052850;28;20187;-91
2022/01/02 05:37:59;;;;;;;36.57;25.17;;;10.30;96.10;;;;;;5052540;28;20196;-91
2022/01/02 05:40:30;;;;;;;42.10;26.30;;;10.30;96.10;;;;;;5052639;28;20204;-91
2022/01/02 05:42:57;;;;;;;34.50;25.27;;;10.30;96.10;;;;;;5052491;28;20669;-91
2022/01/02 05:45:22;;;;;;;40.57;25.80;;;10.30;96.10;;;;;;5053170;28;20542;-92
2022/01/02 05:47:48;;;;;;;37.20;27.17;;;10.30;96.10;;;;;;5052752;28;20207;-92
2022/01/02 05:50:13;;;;;;;44.73;28.00;;;10.30;96.20;;;;;;5052380;28;20195;-90
2022/01/02 05:52:39;;;;;;;43.20;27.30;;;10.20;96.20;;;;;;5052725;28;20266;-91
2022/01/02 05:55:05;;;;;;;34.63;25.00;;;10.20;96.20;;;;;;5052846;28;20234;-91
2022/01/02 05:57:32;;;;;;;39.67;26.77;;;10.30;96.20;;;;;;5052468;28;20229;-91
2022/01/02 05:59:57;;;;;;;39.60;26.03;;;10.30;96.20;;;;;;5052196;28;20196;-90
2022/01/02 06:02:23;;;;;;;38.00;27.03;;;10.30;96.20;;;;;;5052155;28;20183;-90
2022/01/02 06:04:49;;;;;;;35.57;27.63;;;10.30;96.20;;;;;;5052101;28;20644;-90
2022/01/02 06:07:15;;;;;;;37.37;26.33;;;10.30;96.30;;;;;;5052053;28;20180;-90
2022/01/02 06:09:41;;;;;;;34.57;25.63;;;10.30;96.30;;;;;;5051928;28;20569;-90
2022/01/02 06:12:07;;;;;;;39.47;27.00;;;10.30;96.20;;;;;;5052096;28;20182;-91
2022/01/02 06:14:33;;;;;;;37.97;28.63;;;10.30;96.30;;;;;;5051937;28;20263;-90
2022/01/02 06:16:59;;;;;;;43.57;27.70;;;10.30;96.20;;;;;;5051304;28;20199;-90
2022/01/02 06:19:24;;;;;;;44.47;29.50;;;10.20;96.30;;;;;;5052109;28;20210;-91
2022/01/02 06:21:50;;;;;;;44.37;28.70;;;10.30;96.30;;;;;;5052367;28;20636;-91
2022/01/02 06:24:16;;;;;;;38.43;28.50;;;10.30;96.30;;;;;;5052495;28;20643;-92
2022/01/02 06:26:42;;;;;;;42.30;29.37;;;10.30;96.30;;;;;;5052368;28;20187;-91
2022/01/02 06:29:07;;;;;;;37.40;25.13;;;10.30;96.40;;;;;;5052277;28;20216;-91
2022/01/02 06:31:33;;;;;;;43.13;30.93;;;10.30;96.40;;;;;;5052658;28;20180;-91
2022/01/02 06:33:59;;;;;;;45.00;29.10;;;10.30;96.40;;;;;;5052977;28;20635;-91
2022/01/02 06:36:24;;;;;;;35.53;26.70;;;10.30;96.40;;;;;;5052078;28;20221;-91
2022/01/02 06:38:50;;;;;;;38.03;25.87;;;10.30;96.40;;;;;;5052012;28;20200;-91
2022/01/02 06:41:16;;;;;;;38.73;26.50;;;10.30;96.40;;;;;;5052058;28;20191;-91
2022/01/02 06:43:43;;;;;;;36.80;25.53;;;10.30;96.40;;;;;;5052944;28;20244;-91
2022/01/02 06:46:09;;;;;;;37.20;25.43;;;10.30;96.40;;;;;;5052138;28;20237;-91
2022/01/02 06:48:35;;;;;;;35.20;25.90;;;10.30;96.50;;;;;;5051696;28;20204;-92
2022/01/02 06:51:01;;;;;;;35.93;25.40;;;10.40;96.50;;;;;;5051842;28;20172;-91
2022/01/02 06:53:26;;;;;;;38.93;29.13;;;10.40;96.40;;;;;;5051812;28;20199;-90
2022/01/02 06:55:52;;;;;;;36.50;27.20;;;10.30;96.40;;;;;;5051660;28;20176;-90
2022/01/02 06:58:18;;;;;;;37.20;25.53;;;10.40;96.40;;;;;;5052140;28;20176;-90
2022/01/02 07:00:44;;;;;;;36.63;26.23;;;10.40;96.40;;;;;;5052540;28;20200;-89
2022/01/02 07:03:09;;;;;;;39.67;25.13;;;10.40;96.40;;;;;;5051908;28;20241;-90
2022/01/02 07:05:36;;;;;;;30.47;21.83;;;10.50;96.40;;;;;;5051981;28;20184;-89
2022/01/02 07:08:01;;;;;;;30.50;21.70;;;10.50;96.40;;;;;;5051896;28;20296;-91
2022/01/02 07:10:27;;;;;;;31.97;21.40;;;10.50;96.30;;;;;;5052062;28;20231;-91
2022/01/02 07:12:52;;;;;;;31.07;22.60;;;10.60;96.30;;;;;;5051445;28;20180;-90
2022/01/02 07:15:18;;;;;;;30.70;21.10;;;10.60;96.30;;;;;;5052610;28;20218;-91
2022/01/02 07:17:44;;;;;;;28.17;20.43;;;10.70;96.30;;;;;;5052513;28;20537;-90
2022/01/02 07:20:12;;;;;;;31.23;20.87;;;10.60;96.20;;;;;;5052559;28;20207;-90
2022/01/02 07:22:40;;;;;;;27.37;19.70;;;10.60;96.10;;;;;;5051360;28;20180;-90
2022/01/02 07:25:06;;;;;;;30.47;19.33;;;10.70;96.10;;;;;;5051856;28;20188;-90
2022/01/02 07:27:32;;;;;;;21.73;15.37;;;10.70;96.00;;;;;;5054254;28;20180;-91
2022/01/02 07:29:58;;;;;;;25.73;18.07;;;10.70;95.90;;;;;;5055339;28;20203;-90
2022/01/02 07:32:24;;;;;;;25.67;19.50;;;10.70;95.90;;;;;;5054883;28;20176;-90
2022/01/02 07:34:50;;;;;;;22.97;17.77;;;10.70;95.90;;;;;;5054828;28;20644;-90
2022/01/02 07:37:16;;;;;;;28.30;18.90;;;10.80;95.90;;;;;;5054922;28;20667;-89
2022/01/02 07:39:42;;;;;;;27.10;17.13;;;10.80;95.90;;;;;;5054728;28;20202;-90
2022/01/02 07:42:08;;;;;;;23.03;16.33;;;10.80;95.80;;;;;;5055930;28;20172;-91
2022/01/02 07:44:36;;;;;;;24.63;17.53;;;10.80;95.80;;;;;;5054620;28;20187;-91
2022/01/02 07:47:02;;;;;;;30.13;19.03;;;10.80;95.80;;;;;;5054903;28;20922;-93
2022/01/02 07:49:28;;;;;;;23.60;15.60;;;10.90;95.70;;;;;;5055038;28;20299;-89
2022/01/02 07:51:53;;;;;;;14.17;11.23;;;10.90;95.60;;;;;;5054652;28;20262;-91
2022/01/02 07:54:19;;;;;;;18.73;11.60;;;10.90;95.60;;;;;;5054440;28;20180;-91
2022/01/02 07:56:44;;;;;;;19.73;11.47;;;11.00;95.50;;;;;;5054369;28;20226;-91
2022/01/02 07:59:10;;;;;;;19.73;12.00;;;11.00;95.50;;;;;;5054196;28;20569;-91
2022/01/02 08:01:36;;;;;;;24.47;12.30;;;11.00;95.70;;;;;;5054353;28;20250;-91
2022/01/02 08:04:02;;;;;;;19.43;11.27;;;11.00;95.80;;;;;;5059657;28;20172;-92
2022/01/02 08:06:28;;;;;;;19.60;10.80;;;11.10;95.70;;;;;;5055013;28;20176;-92
2022/01/02 08:08:53;;;;;;;23.00;13.00;;;11.10;95.80;;;;;;5055071;28;20219;-91
2022/01/02 08:11:19;;;;;;;16.73;9.37;;;11.00;95.80;;;;;;5054668;28;20257;-92
2022/01/02 08:13:45;;;;;;;20.27;12.57;;;11.00;95.80;;;;;;5054487;28;20180;-91
2022/01/02 08:16:11;;;;;;;24.07;12.10;;;11.00;95.90;;;;;;5054915;28;20188;-92
2022/01/02 08:18:37;;;;;;;16.73;10.43;;;11.00;95.90;;;;;;5054353;28;20202;-91
2022/01/02 08:21:03;;;;;;;24.87;11.83;;;11.00;95.90;;;;;;5058562;28;20639;-92
2022/01/02 08:23:28;;;;;;;19.80;12.07;;;11.00;95.90;;;;;;5055772;28;20176;-92
2022/01/02 08:25:54;;;;;;;18.00;11.90;;;11.00;96.00;;;;;;5054254;28;20179;-91
2022/01/02 08:28:20;;;;;;;16.50;9.20;;;11.10;95.90;;;;;;5053854;28;20593;-92
2022/01/02 08:30:47;;;;;;;17.90;11.63;;;11.10;95.90;;;;;;5054592;28;20206;-91
2022/01/02 08:33:14;;;;;;;20.27;12.60;;;11.10;95.90;;;;;;5056524;28;20233;-92
2022/01/02 08:35:40;;;;;;;21.33;12.03;;;11.10;95.90;;;;;;5055302;28;20662;-91
2022/01/02 08:38:06;;;;;;;15.87;10.57;;;11.10;96.00;;;;;;5053870;28;20187;-92
2022/01/02 08:40:32;;;;;;;16.17;11.43;;;11.10;96.00;;;;;;5054333;28;20199;-92
2022/01/02 08:42:58;;;;;;;23.97;11.80;;;11.10;96.00;;;;;;5055596;28;20180;-92
2022/01/02 08:45:23;;;;;;;22.53;10.83;;;11.10;96.00;;;;;;5054438;28;20186;-91
2022/01/02 08:47:49;;;;;;;19.37;12.30;;;11.10;96.00;;;;;;5053450;28;20246;-90
2022/01/02 08:50:15;;;;;;;18.13;11.47;;;11.20;95.90;;;;;;5053441;28;20199;-90
2022/01/02 08:52:41;;;;;;;19.47;11.33;;;11.30;95.90;;;;;;5054541;28;20172;-91
2022/01/02 08:55:07;;;;;;;16.80;11.30;;;11.30;95.80;;;;;;5053456;28;20218;-91
2022/01/02 08:57:33;;;;;;;16.00;9.67;;;11.30;95.70;;;;;;5053530;28;20202;-90
2022/01/02 08:59:58;;;;;;;16.53;10.80;;;11.30;95.50;;;;;;5054337;28;20192;-91
2022/01/02 09:02:24;;;;;;;11.67;8.97;;;11.30;95.40;;;;;;5053134;28;20203;-90
2022/01/02 09:04:50;;;;;;;13.93;7.47;;;11.30;95.40;;;;;;5053199;28;20183;-90
2022/01/02 09:07:16;;;;;;;13.10;8.07;;;11.30;95.30;;;;;;5053122;28;20172;-90
2022/01/02 09:09:41;;;;;;;16.60;8.93;;;11.40;95.20;;;;;;5052998;28;20218;-90
2022/01/02 09:12:08;;;;;;;10.67;7.43;;;11.40;95.20;;;;;;5052966;28;20180;-91
2022/01/02 09:14:35;;;;;;;12.73;7.27;;;11.50;95.00;;;;;;5053152;28;20207;-90
2022/01/02 09:17:01;;;;;;;15.30;7.40;;;11.50;94.90;;;;;;5053220;28;20196;-90
2022/01/02 09:19:26;;;;;;;13.20;7.23;;;11.40;94.80;;;;;;5052865;28;20665;-90
2022/01/02 09:21:55;;;;;;;8.97;6.37;;;11.40;94.80;;;;;;5052789;28;20180;-90
2022/01/02 09:24:20;;;;;;;14.63;7.43;;;11.40;94.80;;;;;;5052662;28;20180;-90
2022/01/02 09:26:46;;;;;;;11.17;5.10;;;11.50;94.80;;;;;;5052985;28;20182;-90
2022/01/02 09:29:11;;;;;;;10.87;5.57;;;11.50;94.60;;;;;;5052532;28;20285;-90
2022/01/02 09:31:37;;;;;;;15.10;6.27;;;11.60;94.50;;;;;;5052958;28;20179;-91
2022/01/02 09:34:03;;;;;;;11.33;4.83;;;11.50;94.40;;;;;;5053595;28;20180;-90
2022/01/02 09:36:28;;;;;;;16.57;3.60;;;11.50;94.40;;;;;;5053326;28;20176;-89
2022/01/02 09:38:54;;;;;;;9.60;4.80;;;11.50;94.30;;;;;;5053302;28;20200;-89
2022/01/02 09:41:20;;;;;;;11.73;4.60;;;11.60;94.00;;;;;;5054341;28;20264;-89
2022/01/02 09:43:47;;;;;;;8.50;4.03;;;11.60;94.00;;;;;;5053137;28;20180;-90
2022/01/02 09:46:21;;;;;;;11.13;4.33;;;11.70;93.60;;;;;;5053848;28;20176;-91
2022/01/02 09:48:49;;;;;;;14.37;5.33;;;11.70;93.40;;;;;;5054052;28;20216;-90
2022/01/02 09:51:20;;;;;;;10.83;4.20;;;11.70;93.40;;;;;;5053722;28;20263;-90
2022/01/02 09:53:46;;;;;;;5.90;4.00;;;11.70;93.30;;;;;;5053974;28;20152;-90
2022/01/02 09:56:14;;;;;;;8.63;4.20;;;11.70;93.30;;;;;;5053032;28;20543;-90
2022/01/02 09:58:42;;;;;;;12.53;3.70;;;11.70;93.30;;;;;;5052595;28;20184;-90
2022/01/02 10:01:15;;;;;;;6.83;3.20;;;11.60;93.20;;;;;;5052432;28;20600;-89
2022/01/02 10:03:43;;;;;;;6.13;3.57;;;11.60;93.20;;;;;;5052530;28;20175;-90
2022/01/02 10:06:08;;;;;;;16.30;3.70;;;11.70;93.10;;;;;;5052388;28;20236;-89
2022/01/02 10:08:35;;;;;;;4.03;3.00;;;11.60;93.20;;;;;;5052171;28;20291;-90
2022/01/02 10:11:20;;;;;;;11.40;3.33;;;11.70;92.80;;;;;;5053477;28;20640;-90
2022/01/02 10:13:54;;;;;;;7.23;3.20;;;11.80;92.60;;;;;;5053262;28;20513;-90
2022/01/02 10:16:34;;;;;;;8.93;3.53;;;11.80;92.70;;;;;;5052333;28;20333;-90
2022/01/02 10:19:18;;;;;;;12.70;3.70;;;11.80;92.30;;;;;;5052198;28;20238;-90
2022/01/02 10:21:51;;;;;;;10.33;3.77;;;11.80;92.90;;;;;;5052253;28;20190;-90
2022/01/02 10:24:27;;;;;;;8.00;3.77;;;11.70;92.90;;;;;;5052380;28;20195;-89
2022/01/02 10:27:17;;;;;;;8.97;3.43;;;11.70;93.00;;;;;;5053272;28;20174;-90
2022/01/02 10:29:43;;;;;;;6.30;3.27;;;11.80;93.00;;;;;;5043862;28;20249;-91
2022/01/02 10:32:25;;;;;;;12.93;3.60;;;11.80;92.80;;;;;;5052423;28;20644;-90
2022/01/02 10:34:51;;;;;;;4.70;3.10;;;11.70;93.20;;;;;;5052326;28;20187;-90
2022/01/02 10:37:25;;;;;;;11.17;4.20;;;11.70;93.40;;;;;;5053480;28;20218;-90
2022/01/02 10:39:50;;;;;;;3.37;2.57;;;11.70;93.00;;;;;;5052294;28;20204;-90
2022/01/02 10:42:17;;;;;;;4.90;2.70;;;11.70;93.10;;;;;;5053395;28;20247;-89
2022/01/02 10:44:43;;;;;;;6.77;3.43;;;11.70;93.20;;;;;;5052195;28;20172;-90
2022/01/02 10:47:14;;;;;;;10.77;5.13;;;11.70;93.30;;;;;;5053393;28;20545;-90
2022/01/02 10:49:50;;;;;;;11.37;3.30;;;11.60;93.50;;;;;;5052005;28;20211;-90
2022/01/02 10:52:47;;;;;;;10.53;3.87;;;11.60;93.60;;;;;;5053309;28;20533;-90
2022/01/02 10:55:25;;;;;;;3.70;2.60;;;11.60;93.80;;;;;;5036499;28;20275;-89
2022/01/02 10:57:53;;;;;;;8.80;4.37;;;11.60;93.80;;;;;;5051986;28;20321;-89
2022/01/02 11:00:22;;;;;;;8.13;3.53;;;11.60;93.80;;;;;;5051855;28;20204;-90
2022/01/02 11:02:48;;;;;;;11.43;4.10;;;11.50;94.00;;;;;;5054250;28;20183;-90
2022/01/02 11:05:17;;;;;;;9.97;4.33;;;11.50;94.00;;;;;;5058057;28;20180;-90
2022/01/02 11:07:47;;;;;;;12.87;4.30;;;11.60;93.80;;;;;;5055534;28;20176;-90
2022/01/02 11:10:23;;;;;;;6.33;3.40;;;11.60;93.70;;;;;;5055422;28;20203;-90
2022/01/02 11:12:50;;;;;;;10.57;3.77;;;11.50;93.70;;;;;;5055577;28;20174;-91
2022/01/02 11:15:18;;;;;;;5.80;2.50;;;11.60;93.70;;;;;;5055317;28;20179;-90
2022/01/02 11:17:44;;;;;;;7.50;3.60;;;11.70;93.40;;;;;;5056354;28;20184;-90
2022/01/02 11:20:14;;;;;;;7.37;3.80;;;11.70;93.50;;;;;;5055162;28;20207;-90
2022/01/02 11:22:42;;;;;;;8.13;4.10;;;11.60;93.50;;;;;;5055730;28;20225;-91
2022/01/02 11:25:22;;;;;;;6.97;3.47;;;11.60;93.70;;;;;;5060904;28;20172;-92
2022/01/02 11:27:58;;;;;;;9.80;3.73;;;11.50;93.80;;;;;;5057280;28;20168;-91
2022/01/02 11:30:35;;;;;;;10.50;4.50;;;11.50;93.90;;;;;;5057241;28;20245;-91
2022/01/02 11:33:03;;;;;;;10.93;4.20;;;11.40;93.90;;;;;;5057419;28;20167;-90
2022/01/02 11:35:32;;;;;;;3.73;2.43;;;11.50;93.90;;;;;;5056606;28;20183;-90
2022/01/02 11:38:03;;;;;;;5.77;2.80;;;11.50;93.70;;;;;;5055090;28;20180;-89
2022/01/02 11:40:58;;;;;;;7.17;3.23;;;11.50;93.60;;;;;;5054809;28;20196;-90
2022/01/02 11:43:35;;;;;;;5.03;3.27;;;11.50;93.60;;;;;;5052655;28;20191;-89
2022/01/02 11:46:17;;;;;;;13.00;4.00;;;11.50;93.90;;;;;;5054645;28;20176;-89
2022/01/02 11:49:04;;;;;;;9.67;4.57;;;11.50;94.00;;;;;;5054484;28;20214;-90
2022/01/02 11:51:47;;;;;;;16.53;4.00;;;11.40;94.20;;;;;;5055806;28;20226;-90
2022/01/02 11:54:31;;;;;;;7.23;3.50;;;11.30;94.20;;;;;;5055007;28;20172;-90
2022/01/02 11:56:58;;;;;;;11.03;3.43;;;11.30;94.50;;;;;;5057379;28;20255;-90
2022/01/02 11:59:39;;;;;;;4.30;3.33;;;11.30;94.50;;;;;;5055476;28;20196;-90
2022/01/02 12:02:08;;;;;;;10.80;5.00;;;11.20;94.60;;;;;;5055853;28;20270;-90
2022/01/02 12:04:59;;;;;;;9.40;4.90;;;11.20;94.70;;;;;;5057512;28;20174;-91
2022/01/02 12:07:33;;;;;;;10.07;5.03;;;11.20;94.80;;;;;;5055001;28;20190;-90
2022/01/02 12:10:31;;;;;;;17.27;5.83;;;11.20;94.90;;;;;;5054871;28;20203;-90
2022/01/02 12:12:59;;;;;;;14.33;5.27;;;11.20;95.00;;;;;;5053660;28;20188;-89
2022/01/02 12:15:45;;;;;;;12.93;5.33;;;11.20;95.00;;;;;;5053760;28;20600;-89
2022/01/02 12:18:27;;;;;;;8.97;5.10;;;11.20;95.00;;;;;;5037280;28;20281;-89
2022/01/02 12:20:52;;;;;;;11.37;5.40;;;11.20;95.00;;;;;;5055084;28;20184;-90
2022/01/02 12:23:33;;;;;;;13.17;5.17;;;11.10;95.10;;;;;;5054253;28;20190;-90
2022/01/02 12:25:59;;;;;;;13.40;5.97;;;11.20;95.10;;;;;;5055624;28;20183;-89
2022/01/02 12:28:25;;;;;;;12.90;6.40;;;11.20;95.10;;;;;;5053848;28;20212;-89
2022/01/02 12:30:52;;;;;;;9.20;4.90;;;11.20;95.10;;;;;;5053923;28;20670;-89
2022/01/02 12:33:25;;;;;;;11.33;6.10;;;11.30;94.90;;;;;;5054690;28;20219;-88
2022/01/02 12:35:51;;;;;;;13.37;6.33;;;11.40;94.70;;;;;;5055391;28;20200;-90
2022/01/02 12:38:17;;;;;;;11.30;5.63;;;11.50;94.50;;;;;;5054143;28;20211;-90
2022/01/02 12:40:43;;;;;;;10.57;5.77;;;11.50;94.20;;;;;;5054128;28;20211;-90
2022/01/02 12:43:09;;;;;;;12.63;4.63;;;11.50;93.90;;;;;;5054485;28;20619;-90
2022/01/02 12:45:35;;;;;;;7.83;5.17;;;11.50;93.90;;;;;;5054144;28;20234;-90